Terminal Aerodrome Forecast
Issued by NWS

Home | Current Version | Previous Version | Text Only | Print | Product List | Glossary On
Versions: 1 2 3 4 5 6 7 8 9 10 11 12 13 14 15 16 17 18 19 20 21 22 23 24 25 26 27 28
000
FTUS45 KGJT 020541
TAFTEX
TAF
KTEX 020541Z 0206/0306 13005KT P6SM BKN060 BKN080
     FM020800 13005KT P6SM SCT060 SCT100
     FM021600 22005KT P6SM SCT120
     FM021900 25006KT P6SM VCTS SCT080CB BKN120
     FM030200 13005KT P6SM VCSH SCT080 BKN110=

USA.gov is the U.S. government's official web portal to all federal, state and local government web resources and services.